香港国際空港 の過去48時間の天気

香港国際空港 (Hong Kong Inter-National Airport)

現在時刻: 11/25 01:58 HKT (11/24 17:58 UTC) 以下の時間は現地時間です。

過去48時間のMETAR気象情報
時間 風向 風速(m/s) 視程 気温(℃) 湿度(%) 気圧(hPa) 天気現象
25 01:30 4 10km以上 23 78 1019
25 01:00 4 10km以上 23 78 1019 弱い雨
25 00:30 4 10km以上 23 78 1020
25 00:00 5 10km以上 23 78 1020 弱い雨
24 23:30 東南東 5 10km以上 23 78 1020 弱い雨
24 23:00 6 10km以上 23 78 1020
24 22:30 6 10km以上 23 78 1020
24 22:00 7 10km以上 23 78 1019
24 21:30 6 10km以上 24 74 1019
24 21:00 6 10km以上 24 74 1019
24 20:30 東南東 5 10km以上 24 74 1019
24 20:00 東南東 5 10km以上 24 74 1019
24 19:30 6 10km以上 24 74 1019
24 19:00 6 10km以上 24 74 1018
24 18:30 6 10km以上 24 74 1018
24 18:00 3 8000m 24 74 1018
24 17:30 不定 1 8000m 24 74 1018
24 17:00 西南西 2 7000m 24 69 1018
24 16:30 西南西 3 6000m 25 61 1018
24 16:00 西南西 3 6000m 25 61 1017
24 15:30 南西 3 6000m 25 65 1017
24 15:00 南西 4 6000m 25 65 1017
24 14:30 西 3 6000m 26 61 1018
24 14:00 西南西 3 6000m 25 65 1018
24 13:30 西北西 4 7000m 25 61 1018
24 13:00 西北西 4 7000m 26 58 1019
24 12:30 北西 5 7000m 25 61 1019
24 12:00 北西 5 8000m 25 65 1020
24 11:30 北北西 4 9000m 25 61 1020
24 11:00 北北西 4 9000m 25 61 1020
24 10:30 北北東 2 10km以上 24 65 1021
24 10:00 2 9000m 24 65 1021
24 09:30 北東 3 10km以上 23 69 1021
24 09:00 北東 3 10km以上 23 69 1021
24 08:30 北東 3 10km以上 23 69 1021
24 08:00 北東 4 10km以上 22 73 1021
24 07:30 北東 5 10km以上 22 73 1020
24 07:00 北東 5 10km以上 22 73 1020
24 06:30 北東 5 10km以上 22 73 1020
24 06:00 北北東 3 9000m 22 78 1020
24 05:30 北北東 5 9000m 22 83 1019
24 05:00 4 10km以上 23 78 1019
24 04:30 3 10km以上 23 78 1019
24 04:00 4 10km以上 23 78 1019
24 03:30 4 10km以上 23 78 1019
24 03:00 3 10km以上 23 78 1019
24 02:30 4 10km以上 23 78 1019
24 02:00 4 10km以上 23 78 1019
24 01:30 4 10km以上 23 83 1020
24 01:00 北東 2 9000m 23 83 1020
24 00:30 東北東 2 9000m 23 78 1020
24 00:00 2 10km以上 24 74 1020
23 23:30 2 9000m 24 74 1020
23 23:00 2 9000m 24 74 1020
23 22:30 東南東 3 9000m 24 74 1020
23 22:00 3 10km以上 24 78 1020
23 21:30 東北東 2 10km以上 23 78 1020
23 21:00 2 10km以上 24 74 1020
23 20:30 東北東 3 10km以上 24 78 1020
23 20:00 東北東 3 10km以上 24 78 1020
23 19:30 3 10km以上 24 78 1020
23 19:00 3 10km以上 24 74 1020
23 18:30 東南東 3 10km以上 24 74 1019
23 18:00 2 10km以上 24 74 1019
23 17:30 3 10km以上 24 74 1019
23 17:00 4 10km以上 24 74 1018
23 16:30 5 10km以上 24 74 1018
23 16:00 5 10km以上 24 74 1018
23 15:30 東南東 5 10km以上 24 74 1018
23 15:00 東南東 5 10km以上 24 74 1019
23 14:30 東南東 5 10km以上 24 74 1018
23 14:00 東南東 7 10km以上 25 69 1019
23 13:30 6 10km以上 25 69 1019
23 13:00 6 10km以上 24 74 1019
23 12:30 7 10km以上 24 74 1020
23 12:00 5 10km以上 24 74 1020
23 11:30 7 10km以上 24 74 1021
23 11:00 8 10km以上 24 74 1021
23 10:30 8 10km以上 23 78 1021
23 10:00 8 10km以上 23 78 1021
23 09:30 8 10km以上 24 74 1021
23 09:00 8 10km以上 23 78 1021
23 08:30 9 10km以上 23 78 1021
23 08:00 7 10km以上 23 83 1020
23 07:30 8 10km以上 23 83 1020
23 07:00 8 10km以上 23 83 1019
23 06:30 8 10km以上 24 78 1019
23 06:00 8 10km以上 24 78 1019
23 05:30 8 10km以上 23 83 1018
23 05:00 9 10km以上 23 89 1018
23 04:30 8 10km以上 24 83 1018
23 04:00 6 9000m 23 89 1018 弱い雨
23 03:30 東南東 5 10km以上 24 83 1018
23 03:00 5 10km以上 24 83 1018
23 02:30 5 10km以上 24 83 1017
23 02:00 6 10km以上 24 83 1017
VHHH 241730Z 09007KT 9999 FEW018 SCT045 23/19 Q1019 NOSIG
VHHH 241700Z 10008KT 080V140 9999 -RA FEW016 SCT035 23/19 Q1019 NOSIG
VHHH 241630Z 10007KT 9999 FEW016 SCT035 23/19 Q1020 NOSIG
VHHH 241600Z 10009KT 070V130 9999 -RA FEW020 SCT035 23/19 Q1020 NOSIG
VHHH 241530Z 12009KT 9999 -RA FEW020 SCT035 23/19 Q1020 NOSIG
VHHH 241500Z 10011KT 9999 FEW023 SCT035 23/19 Q1020 NOSIG
VHHH 241430Z 10012KT 9999 FEW023 SCT035 23/19 Q1020 NOSIG
VHHH 241400Z 10013KT 9999 FEW023 SCT035 23/19 Q1019 NOSIG
VHHH 241330Z 10011KT 9999 FEW023 SCT035 24/19 Q1019 NOSIG
VHHH 241300Z 10011KT 9999 FEW023 SCT035 24/19 Q1019 NOSIG
VHHH 241230Z 11010KT 9999 FEW026 SCT035 24/19 Q1019 NOSIG
VHHH 241200Z 11009KT 9999 FEW026 SCT040 24/19 Q1019 NOSIG
VHHH 241130Z 09011KT 9999 FEW026 24/19 Q1019 NOSIG
VHHH 241100Z 10011KT 080V150 9999 FEW028 24/19 Q1018 NOSIG
VHHH 241030Z 10011KT 9999 FEW028 24/19 Q1018 NOSIG
VHHH 241000Z 10006KT 070V150 8000 FEW028 24/19 Q1018 NOSIG
VHHH 240930Z VRB02KT 8000 FEW028 24/19 Q1018 NOSIG
VHHH 240900Z 25004KT 220V280 7000 FEW026 24/18 Q1018 NOSIG
VHHH 240830Z 24005KT 210V270 6000 FEW026 25/17 Q1018 NOSIG
VHHH 240800Z 25006KT 220V280 6000 FEW026 25/17 Q1017 NOSIG
VHHH 240730Z 23006KT 200V290 6000 FEW026 25/18 Q1017 NOSIG
VHHH 240700Z 23007KT 200V260 6000 FEW026 25/18 Q1017 NOSIG
VHHH 240630Z 27006KT 210V320 6000 FEW026 26/18 Q1018 NOSIG
VHHH 240600Z 24005KT 170V290 6000 FEW026 25/18 Q1018 NOSIG
VHHH 240530Z 30007KT 7000 FEW024 25/17 Q1018 NOSIG
VHHH 240500Z 29007KT 260V330 7000 FEW028 26/17 Q1019 NOSIG
VHHH 240430Z 31009KT 270V340 7000 FEW028 25/17 Q1019 NOSIG
VHHH 240400Z 32009KT 280V350 8000 FEW026 25/18 Q1020 NOSIG
VHHH 240330Z 33008KT 310V010 9000 FEW026 25/17 Q1020 NOSIG
VHHH 240300Z 34008KT 300V020 9000 FEW028 25/17 Q1020 NOSIG
VHHH 240230Z 02004KT 290V080 9999 FEW025 24/17 Q1021 NOSIG
VHHH 240200Z 01004KT 300V060 9000 FEW023 24/17 Q1021 NOSIG
VHHH 240130Z 05005KT 010V080 9999 FEW023 23/17 Q1021 NOSIG
VHHH 240100Z 05006KT 9999 FEW018 23/17 Q1021 NOSIG
VHHH 240030Z 04006KT 9999 FEW015 SCT045 23/17 Q1021 NOSIG
VHHH 240000Z 05008KT 9999 FEW015 SCT045 22/17 Q1021 NOSIG
VHHH 232330Z 04009KT 9999 FEW015 22/17 Q1020 NOSIG
VHHH 232300Z 05009KT 9999 SCT014 SCT022 22/17 Q1020 NOSIG
VHHH 232230Z 05009KT 9999 FEW013 SCT020 22/17 Q1020 NOSIG
VHHH 232200Z 03006KT 360V070 9000 FEW013 SCT020 22/18 Q1020 NOSIG
VHHH 232130Z 03009KT 9000 FEW014 SCT022 22/19 Q1019 NOSIG
VHHH 232100Z 09007KT 040V110 9999 FEW014 SCT023 23/19 Q1019 NOSIG
VHHH 232030Z 10006KT 070V140 9999 FEW015 SCT025 23/19 Q1019 NOSIG
VHHH 232000Z 10007KT 070V180 9999 FEW015 SCT025 23/19 Q1019 NOSIG
VHHH 231930Z 10008KT 9999 FEW015 SCT025 23/19 Q1019 NOSIG
VHHH 231900Z 09005KT 9999 FEW015 SCT025 23/19 Q1019 NOSIG
VHHH 231830Z 10007KT 080V140 9999 FEW015 SCT025 23/19 Q1019 NOSIG
VHHH 231800Z 10008KT 9999 FEW013 SCT025 23/19 Q1019 NOSIG
VHHH 231730Z 10007KT 9999 SCT013 SCT023 23/20 Q1020 NOSIG
VHHH 231700Z 04004KT 9000 FEW015 SCT023 23/20 Q1020 NOSIG
VHHH 231630Z 07004KT 040V180 9000 SCT020 23/19 Q1020 NOSIG
VHHH 231600Z 09004KT 050V160 9999 FEW020 24/19 Q1020 NOSIG
VHHH 231530Z 08004KT 050V150 9000 FEW020 24/19 Q1020 NOSIG
VHHH 231500Z 09004KT 9000 FEW020 24/19 Q1020 NOSIG
VHHH 231430Z 11005KT 080V150 9000 FEW016 24/19 Q1020 NOSIG
VHHH 231400Z 10005KT 9999 FEW016 24/20 Q1020 NOSIG
VHHH 231330Z 06003KT 010V080 9999 FEW016 23/19 Q1020 NOSIG
VHHH 231300Z 08004KT 9999 FEW018 SCT025 24/19 Q1020 NOSIG
VHHH 231230Z 07005KT 9999 FEW018 SCT025 24/20 Q1020 NOSIG
VHHH 231200Z 07005KT 9999 FEW018 SCT028 24/20 Q1020 NOSIG
VHHH 231130Z 08006KT 9999 FEW016 SCT028 24/20 Q1020 NOSIG
VHHH 231100Z 08006KT 050V150 9999 FEW016 SCT028 24/19 Q1020 NOSIG
VHHH 231030Z 11005KT 080V180 9999 FEW014 SCT025 24/19 Q1019 NOSIG
VHHH 231000Z 08004KT 050V110 9999 FEW014 SCT025 24/19 Q1019 NOSIG
VHHH 230930Z 10005KT 060V210 9999 FEW014 SCT025 24/19 Q1019 NOSIG
VHHH 230900Z 10008KT 9999 FEW014 SCT025 24/19 Q1018 NOSIG
VHHH 230830Z 10010KT 9999 FEW014 SCT023 24/19 Q1018 NOSIG
VHHH 230800Z 10009KT 9999 FEW014 SCT023 24/19 Q1018 NOSIG
VHHH 230730Z 11009KT 070V130 9999 FEW014 SCT023 24/19 Q1018 NOSIG
VHHH 230700Z 12010KT 9999 FEW014 SCT023 24/19 Q1019 NOSIG
VHHH 230630Z 12010KT 9999 FEW014 SCT023 24/19 Q1018 NOSIG
VHHH 230600Z 11013KT 9999 FEW014 SCT023 25/19 Q1019 NOSIG
VHHH 230530Z 10012KT 9999 FEW014 SCT025 25/19 Q1019 NOSIG
VHHH 230500Z 08012KT 9999 FEW012 SCT020 24/19 Q1019 NOSIG
VHHH 230430Z 09013KT 9999 FEW014 SCT020 24/19 Q1020 NOSIG
VHHH 230400Z 08010KT 9999 FEW014 SCT018 24/19 Q1020 NOSIG
VHHH 230330Z 10013KT 9999 FEW014 SCT018 24/19 Q1021 NOSIG
VHHH 230300Z 09015KT 9999 FEW014 SCT018 24/19 Q1021 NOSIG
VHHH 230230Z 09015KT 9999 FEW014 SCT018 23/19 Q1021 NOSIG
VHHH 230200Z 10015KT 9999 FEW014 SCT018 23/19 Q1021 NOSIG
VHHH 230130Z 09015KT 9999 FEW012 SCT018 24/19 Q1021 NOSIG
VHHH 230100Z 10015KT 9999 FEW012 SCT018 23/19 Q1021 NOSIG
VHHH 230030Z 10018KT 9999 FEW010 SCT018 23/19 Q1021 NOSIG
VHHH 230000Z 09013KT 9999 SCT010 SCT016 23/20 Q1020 NOSIG
VHHH 222330Z 09015KT 9999 FEW012 SCT016 23/20 Q1020 NOSIG
VHHH 222300Z 09016KT 9999 FEW012 SCT016 23/20 Q1019 NOSIG
VHHH 222230Z 09016KT 9999 SCT015 BKN025 24/20 Q1019 NOSIG
VHHH 222200Z 10015KT 9999 BKN015 24/20 Q1019 NOSIG
VHHH 222130Z 10016KT 9999 FEW015 SCT025 23/20 Q1018 NOSIG
VHHH 222100Z 10017KT 9999 FEW015 SCT025 23/21 Q1018 NOSIG
VHHH 222030Z 10016KT 9999 FEW010 BKN025 24/21 Q1018 NOSIG
VHHH 222000Z 10012KT 9000 -RA FEW010 BKN025 23/21 Q1018 NOSIG
VHHH 221930Z 11010KT 9999 FEW015 BKN030 24/21 Q1018 NOSIG
VHHH 221900Z 10009KT 9999 FEW025 BKN030 24/21 Q1018 NOSIG
VHHH 221830Z 10010KT 9999 FEW025 SCT030 24/21 Q1017 NOSIG
VHHH 221800Z 09011KT 9999 FEW040 24/21 Q1017 NOSIG